createdAt,value
2019-02-18T00:00:53.760Z,11.52
2019-02-18T00:03:22.061Z,11.23
2019-02-18T00:05:50.408Z,10.38
2019-02-18T00:08:18.675Z,9.93
2019-02-18T00:10:46.927Z,9.77
2019-02-18T00:13:15.977Z,11.63
2019-02-18T00:15:44.357Z,11.35
2019-02-18T00:18:12.711Z,10.20
2019-02-18T00:20:41.032Z,13.02
2019-02-18T00:23:10.076Z,10.10
2019-02-18T00:25:38.351Z,10.70
2019-02-18T00:28:06.618Z,10.43
2019-02-18T00:30:34.941Z,11.63
2019-02-18T00:33:04.034Z,11.00
2019-02-18T00:35:32.372Z,10.97
2019-02-18T00:38:00.771Z,11.23
2019-02-18T00:40:29.056Z,10.52
2019-02-18T00:42:57.445Z,9.45
2019-02-18T00:45:26.538Z,10.77
2019-02-18T00:47:54.877Z,10.50
2019-02-18T00:50:23.170Z,11.50
2019-02-18T00:52:51.553Z,9.70
2019-02-18T00:55:19.835Z,11.20
2019-02-18T00:57:48.928Z,10.63
2019-02-18T01:00:17.203Z,9.25
2019-02-18T01:02:45.474Z,9.63
2019-02-18T01:05:13.761Z,10.77
2019-02-18T01:07:42.099Z,12.50
2019-02-18T01:10:11.434Z,11.27
2019-02-18T01:12:39.715Z,10.23
2019-02-18T01:15:11.249Z,10.35
2019-02-18T01:17:39.520Z,10.40
2019-02-18T01:20:07.829Z,9.32
2019-02-18T01:22:36.867Z,9.27
2019-02-18T01:25:05.180Z,8.93
2019-02-18T01:27:33.523Z,9.10
2019-02-18T01:30:01.799Z,9.00
2019-02-18T01:32:30.077Z,9.48
2019-02-18T01:34:58.346Z,8.65
2019-02-18T01:37:26.731Z,8.15
2019-02-18T01:39:55.115Z,10.90
2019-02-18T01:42:23.437Z,7.93
2019-02-18T01:44:52.612Z,9.25
2019-02-18T01:47:21.089Z,7.93
2019-02-18T01:49:49.465Z,8.80
2019-02-18T01:52:17.812Z,9.52
2019-02-18T01:54:46.095Z,9.20
2019-02-18T01:57:14.384Z,8.80
2019-02-18T01:59:42.637Z,9.67
2019-02-18T02:02:11.057Z,8.80
2019-02-18T02:04:39.396Z,9.13
2019-02-18T02:07:07.685Z,10.93
2019-02-18T02:09:35.994Z,9.30
2019-02-18T02:12:05.032Z,8.13
2019-02-18T02:14:33.295Z,9.05
2019-02-18T02:17:01.583Z,9.38
2019-02-18T02:19:29.897Z,8.60
2019-02-18T02:21:58.165Z,9.75
2019-02-18T02:24:26.519Z,8.55
2019-02-18T02:26:54.931Z,8.52
2019-02-18T02:29:23.169Z,9.43
2019-02-18T02:31:51.419Z,7.67
2019-02-18T02:34:19.727Z,6.50
2019-02-18T02:36:48.004Z,10.23
2019-02-18T02:39:16.386Z,8.45
2019-02-18T02:41:44.647Z,7.68
2019-02-18T02:44:12.924Z,6.60
2019-02-18T02:46:41.244Z,7.70
2019-02-18T02:49:09.580Z,8.43
2019-02-18T02:51:37.956Z,7.30
2019-02-18T02:54:06.223Z,7.47
2019-02-18T02:56:37.271Z,6.17
2019-02-18T02:59:02.829Z,8.80
2019-02-18T03:01:31.163Z,8.10
2019-02-18T03:03:59.434Z,8.55
2019-02-18T03:06:27.703Z,9.18
2019-02-18T03:08:56.083Z,8.38
2019-02-18T03:11:24.351Z,8.57
2019-02-18T03:13:52.639Z,7.65
2019-02-18T03:16:20.940Z,7.68
2019-02-18T03:18:49.293Z,6.78
2019-02-18T03:21:17.560Z,7.18
2019-02-18T03:23:45.853Z,8.23
2019-02-18T03:26:14.163Z,7.03
2019-02-18T03:29:05.136Z,8.10
2019-02-18T03:31:33.461Z,7.90
2019-02-18T03:34:05.962Z,8.80
2019-02-18T03:36:34.261Z,8.40
2019-02-18T03:39:02.544Z,8.02
2019-02-18T03:41:30.823Z,6.95
2019-02-18T03:43:59.209Z,7.80
2019-02-18T03:46:27.551Z,9.35
2019-02-18T03:48:55.933Z,9.50
2019-02-18T03:51:24.232Z,8.30
2019-02-18T03:53:52.590Z,7.75
2019-02-18T03:56:20.848Z,8.00
2019-02-18T03:58:49.100Z,7.82
2019-02-18T04:01:18.129Z,7.83
2019-02-18T04:03:46.382Z,7.07
2019-02-18T04:06:15.397Z,8.87
2019-02-18T04:08:43.688Z,6.95
2019-02-18T04:11:11.924Z,8.05
2019-02-18T04:13:40.977Z,7.93
2019-02-18T04:16:09.238Z,8.13
2019-02-18T04:18:37.492Z,7.63
2019-02-18T04:21:05.753Z,7.63
2019-02-18T04:23:34.181Z,7.10
2019-02-18T04:26:02.461Z,9.10
2019-02-18T04:28:30.794Z,6.82
2019-02-18T04:30:59.167Z,7.57
2019-02-18T04:33:27.347Z,6.20
2019-02-18T04:35:55.627Z,7.32
2019-02-18T04:38:23.891Z,6.00
2019-02-18T04:40:52.316Z,8.00
2019-02-18T04:43:20.588Z,8.73
2019-02-18T04:45:48.858Z,6.18
2019-02-18T04:48:17.129Z,7.72
2019-02-18T04:50:45.594Z,5.85
2019-02-18T04:53:13.856Z,7.55
2019-02-18T04:55:42.136Z,5.97
2019-02-18T04:58:10.418Z,6.22
2019-02-18T05:00:38.704Z,7.72
2019-02-18T05:03:06.983Z,7.60
2019-02-18T05:05:35.262Z,5.93
2019-02-18T05:08:03.644Z,8.50
2019-02-18T05:10:31.924Z,5.70
2019-02-18T05:13:00.214Z,5.93
2019-02-18T05:15:29.356Z,7.95
2019-02-18T05:17:57.626Z,5.78
2019-02-18T05:20:26.052Z,10.13
2019-02-18T05:22:54.355Z,6.40
2019-02-18T05:25:23.427Z,7.93
2019-02-18T05:27:51.758Z,8.30
2019-02-18T05:30:20.048Z,6.70
2019-02-18T05:32:48.444Z,5.93
2019-02-18T05:35:16.701Z,6.03
2019-02-18T05:37:44.968Z,6.35
2019-02-18T05:40:13.261Z,9.25
2019-02-18T05:42:41.533Z,8.25
2019-02-18T05:45:09.807Z,8.02
2019-02-18T05:47:38.193Z,7.35
2019-02-18T05:50:06.470Z,7.82
2019-02-18T05:52:36.423Z,8.73
2019-02-18T05:55:06.400Z,7.37
2019-02-18T05:57:34.687Z,7.78
2019-02-18T06:00:03.014Z,7.43
2019-02-18T06:02:31.299Z,6.53
2019-02-18T06:04:59.597Z,6.47
2019-02-18T06:07:27.861Z,8.50
2019-02-18T06:09:56.163Z,9.48
2019-02-18T06:12:24.457Z,9.07
2019-02-18T06:14:53.597Z,9.25
2019-02-18T06:17:21.901Z,9.60
2019-02-18T06:19:53.210Z,8.85
2019-02-18T06:22:22.683Z,9.95
2019-02-18T06:24:51.035Z,9.10
2019-02-18T06:27:19.298Z,10.60
2019-02-18T06:29:47.583Z,10.82
2019-02-18T06:32:16.741Z,12.73
2019-02-18T06:34:45.032Z,7.93
2019-02-18T06:37:13.400Z,8.48
2019-02-18T06:39:42.088Z,10.87
2019-02-18T06:42:11.226Z,11.30
2019-02-18T06:44:38.345Z,9.15
2019-02-18T06:47:06.653Z,9.48
2019-02-18T06:49:35.795Z,10.23
2019-02-18T06:52:04.088Z,10.07
2019-02-18T06:54:32.373Z,12.57
2019-02-18T06:57:01.444Z,11.25
2019-02-18T06:59:30.294Z,8.63
2019-02-18T07:01:59.149Z,8.98
2019-02-18T07:04:31.354Z,8.52
2019-02-18T07:06:59.574Z,9.25
2019-02-18T07:09:30.364Z,10.35
2019-02-18T07:11:58.659Z,10.43
2019-02-18T07:14:26.945Z,9.95
2019-02-18T07:16:55.361Z,12.05
2019-02-18T07:19:23.643Z,9.75
2019-02-18T07:21:52.708Z,9.93
2019-02-18T07:24:20.979Z,8.93
2019-02-18T07:26:49.344Z,9.07
2019-02-18T07:29:17.623Z,9.20
2019-02-18T07:31:45.906Z,8.93
2019-02-18T07:34:14.843Z,6.65
2019-02-18T07:36:43.209Z,9.10
2019-02-18T07:39:11.577Z,7.62
2019-02-18T07:41:39.927Z,7.32
2019-02-18T07:44:08.211Z,6.62
2019-02-18T07:46:36.571Z,7.75
2019-02-18T07:49:04.860Z,6.80
2019-02-18T07:51:33.151Z,7.97
2019-02-18T07:54:01.434Z,7.55
2019-02-18T07:56:29.783Z,7.37
2019-02-18T07:58:58.194Z,6.85
2019-02-18T08:01:26.451Z,7.30
2019-02-18T08:03:54.807Z,6.87
2019-02-18T08:06:23.074Z,7.47
2019-02-18T08:08:51.359Z,8.85
2019-02-18T08:11:19.634Z,12.52
2019-02-18T08:13:48.035Z,6.28
2019-02-18T08:16:16.337Z,6.12
2019-02-18T08:18:45.375Z,8.45
2019-02-18T08:21:13.663Z,6.53
2019-02-18T08:23:41.943Z,9.02
2019-02-18T08:26:10.208Z,7.57
2019-02-18T08:28:38.482Z,9.10
2019-02-18T08:31:06.759Z,11.15
2019-02-18T08:33:35.021Z,6.32
2019-02-18T08:36:04.133Z,7.80
2019-02-18T08:38:32.536Z,7.03
2019-02-18T08:41:00.779Z,5.97
2019-02-18T08:43:29.065Z,7.47
2019-02-18T08:45:57.312Z,7.63
2019-02-18T08:48:26.343Z,7.10
2019-02-18T08:50:54.814Z,9.80
2019-02-18T08:53:23.143Z,7.53
2019-02-18T08:55:52.172Z,7.18
2019-02-18T08:58:20.435Z,6.18
2019-02-18T09:00:48.740Z,8.75
2019-02-18T09:03:17.123Z,7.93
2019-02-18T09:05:45.399Z,5.97
2019-02-18T09:08:13.666Z,6.55
2019-02-18T09:10:42.061Z,9.80
2019-02-18T09:13:10.414Z,7.00
2019-02-18T09:15:38.683Z,8.38
2019-02-18T09:18:06.988Z,10.38
2019-02-18T09:20:35.369Z,8.60
2019-02-18T09:23:03.686Z,9.95
2019-02-18T09:25:32.790Z,9.02
2019-02-18T09:28:01.122Z,9.80
2019-02-18T09:30:29.391Z,7.40
2019-02-18T09:32:57.758Z,7.85
2019-02-18T09:35:26.034Z,8.52
2019-02-18T09:37:54.383Z,8.77
2019-02-18T09:40:22.714Z,10.57
2019-02-18T09:42:51.769Z,9.10
2019-02-18T09:45:20.040Z,8.43
2019-02-18T09:47:48.311Z,6.25
2019-02-18T09:50:16.636Z,9.85
2019-02-18T09:52:44.963Z,11.52
2019-02-18T09:55:13.252Z,11.40
2019-02-18T09:57:41.619Z,7.45
2019-02-18T10:00:09.947Z,8.35
2019-02-18T10:02:38.983Z,7.85
2019-02-18T10:05:07.258Z,8.87
2019-02-18T10:07:35.560Z,8.05
2019-02-18T10:10:04.986Z,6.20
2019-02-18T10:12:34.060Z,8.70
2019-02-18T10:15:02.411Z,8.40
2019-02-18T10:17:30.712Z,5.12
2019-02-18T10:19:59.015Z,8.30
2019-02-18T10:22:28.163Z,8.68
2019-02-18T10:24:56.455Z,7.28
2019-02-18T10:27:24.811Z,7.93
2019-02-18T10:29:53.116Z,8.80
2019-02-18T10:32:22.896Z,6.93
2019-02-18T10:34:51.273Z,7.47
2019-02-18T10:37:19.589Z,8.75
2019-02-18T10:39:47.932Z,7.70
2019-02-18T10:42:16.217Z,6.90
2019-02-18T10:44:44.691Z,9.57
2019-02-18T10:47:13.129Z,11.35
2019-02-18T10:49:41.416Z,7.72
2019-02-18T10:52:09.719Z,6.82
2019-02-18T10:54:37.990Z,8.65
2019-02-18T10:57:06.277Z,6.97
2019-02-18T10:59:34.639Z,8.95
2019-02-18T11:02:02.935Z,8.32
2019-02-18T11:04:31.241Z,9.35
2019-02-18T11:07:00.287Z,6.75
2019-02-18T11:09:28.666Z,6.60
2019-02-18T11:11:57.040Z,4.85
2019-02-18T11:14:25.414Z,7.80
2019-02-18T11:16:53.695Z,5.03
2019-02-18T11:19:22.004Z,6.75
2019-02-18T11:21:50.347Z,5.97
2019-02-18T11:24:20.650Z,6.72
2019-02-18T11:26:47.040Z,5.18
2019-02-18T11:29:15.342Z,5.28
2019-02-18T11:31:44.399Z,2.80
2019-02-18T11:34:12.647Z,4.25
2019-02-18T11:36:41.139Z,6.75
2019-02-18T11:39:10.207Z,3.72
2019-02-18T11:41:38.592Z,8.57
2019-02-18T11:44:06.861Z,5.20
2019-02-18T11:46:35.160Z,5.15
2019-02-18T11:49:03.562Z,5.05
2019-02-18T11:51:31.840Z,4.05
2019-02-18T11:54:00.893Z,5.12
2019-02-18T11:56:29.241Z,6.50
2019-02-18T11:58:57.549Z,6.40
2019-02-18T12:01:28.276Z,5.95
2019-02-18T12:03:54.248Z,6.00
2019-02-18T12:06:22.541Z,5.20
2019-02-18T12:08:50.921Z,10.98
2019-02-18T12:11:19.217Z,4.62
2019-02-18T12:13:47.499Z,9.80
2019-02-18T12:16:15.770Z,8.83
2019-02-18T12:18:44.059Z,5.20
2019-02-18T12:21:12.464Z,5.50
2019-02-18T12:23:40.738Z,5.00
2019-02-18T12:26:10.544Z,4.62
2019-02-18T12:28:38.827Z,3.90
2019-02-18T12:31:07.218Z,5.62
2019-02-18T12:33:35.513Z,4.37
2019-02-18T12:36:04.670Z,3.53
2019-02-18T12:38:32.977Z,6.15
2019-02-18T12:41:01.304Z,4.50
2019-02-18T12:43:30.032Z,4.28
2019-02-18T12:45:58.314Z,4.28
2019-02-18T12:48:27.379Z,4.72
2019-02-18T12:50:55.680Z,3.70
2019-02-18T12:53:24.737Z,2.58
2019-02-18T12:55:53.153Z,2.60
2019-02-18T12:58:22.288Z,3.85
2019-02-18T13:00:50.701Z,3.12
2019-02-18T13:03:19.009Z,2.58
2019-02-18T13:05:48.094Z,3.20
2019-02-18T13:08:17.273Z,3.50
2019-02-18T13:10:45.555Z,3.67
2019-02-18T13:13:13.899Z,3.93
2019-02-18T13:15:42.271Z,3.90
2019-02-18T13:18:11.621Z,4.45
2019-02-18T13:20:39.896Z,3.83
2019-02-18T13:23:08.951Z,4.07
2019-02-18T13:25:37.319Z,5.10
2019-02-18T13:28:08.498Z,3.28
2019-02-18T13:30:33.971Z,3.30
2019-02-18T13:33:02.348Z,3.22
2019-02-18T13:35:30.732Z,5.82
2019-02-18T13:37:59.115Z,4.60
2019-02-18T13:40:27.393Z,6.47
2019-02-18T13:42:55.720Z,4.53
2019-02-18T13:45:24.857Z,4.43
2019-02-18T13:47:53.174Z,4.25
2019-02-18T13:50:21.647Z,4.60
2019-02-18T13:52:51.451Z,4.47
2019-02-18T13:55:19.795Z,4.50
2019-02-18T13:57:48.507Z,5.12
2019-02-18T14:00:18.314Z,5.43
2019-02-18T14:02:46.665Z,5.78
2019-02-18T14:05:14.935Z,5.47
2019-02-18T14:07:43.212Z,7.15
2019-02-18T14:10:11.646Z,4.78
2019-02-18T14:12:39.980Z,4.78
2019-02-18T14:15:08.300Z,5.95
2019-02-18T14:17:36.615Z,5.15
2019-02-18T14:20:04.880Z,4.25
2019-02-18T14:22:33.483Z,5.60
2019-02-18T14:25:01.867Z,4.50
2019-02-18T14:27:30.143Z,5.22
2019-02-18T14:29:58.423Z,6.07
2019-02-18T14:32:26.791Z,4.70
2019-02-18T14:34:55.204Z,5.40
2019-02-18T14:37:23.486Z,4.15
2019-02-18T14:39:51.798Z,4.37
2019-02-18T14:42:24.475Z,4.00
2019-02-18T14:44:48.360Z,5.37
2019-02-18T14:47:16.643Z,5.97
2019-02-18T14:49:44.947Z,5.90
2019-02-18T14:52:13.261Z,4.40
2019-02-18T14:54:41.632Z,4.47
2019-02-18T14:57:10.775Z,4.95
2019-02-18T14:59:39.164Z,4.97
2019-02-18T15:02:07.447Z,5.72
2019-02-18T15:04:35.814Z,5.57
2019-02-18T15:07:04.186Z,5.22
2019-02-18T15:09:32.470Z,4.40
2019-02-18T15:12:00.835Z,4.65
2019-02-18T15:14:29.161Z,4.68
2019-02-18T15:16:57.482Z,4.77
2019-02-18T15:19:25.804Z,4.00
2019-02-18T15:21:54.121Z,4.57
2019-02-18T15:24:22.437Z,3.45
2019-02-18T15:26:50.783Z,3.60
2019-02-18T15:29:19.319Z,4.00
2019-02-18T15:31:47.694Z,3.97
2019-02-18T15:34:17.466Z,4.95
2019-02-18T15:36:45.768Z,3.00
2019-02-18T15:39:14.027Z,4.50
2019-02-18T15:41:42.424Z,4.28
2019-02-18T15:44:10.770Z,2.65
2019-02-18T15:46:39.070Z,3.58
2019-02-18T15:49:08.882Z,4.55
2019-02-18T15:51:37.147Z,4.50
2019-02-18T15:54:05.516Z,4.57
2019-02-18T15:56:33.823Z,5.90
2019-02-18T15:59:02.197Z,5.37
2019-02-18T16:01:30.467Z,6.95
2019-02-18T16:03:59.534Z,10.48
2019-02-18T16:06:27.823Z,7.85
2019-02-18T16:08:56.123Z,9.90
2019-02-18T16:11:25.200Z,8.82
2019-02-18T16:13:53.570Z,10.20
2019-02-18T16:16:21.863Z,13.10
2019-02-18T16:18:50.134Z,10.97
2019-02-18T16:21:18.890Z,11.12
2019-02-18T16:23:47.164Z,11.23
2019-02-18T16:26:15.485Z,12.18
2019-02-18T16:28:44.543Z,11.00
2019-02-18T16:31:12.965Z,19.20
2019-02-18T16:33:41.283Z,27.48
2019-02-18T16:36:10.115Z,24.80
2019-02-18T16:38:37.871Z,29.23
2019-02-18T16:41:06.166Z,31.25
2019-02-18T16:43:34.458Z,33.80
2019-02-18T16:46:02.841Z,32.40
2019-02-18T16:48:31.162Z,34.72
2019-02-18T16:50:59.535Z,36.67
2019-02-18T16:53:27.920Z,27.25
2019-02-18T16:55:56.214Z,17.08
2019-02-18T16:58:24.604Z,25.98
2019-02-18T17:00:57.716Z,30.08
2019-02-18T17:03:22.039Z,27.33
2019-02-18T17:05:50.423Z,29.60
2019-02-18T17:08:18.791Z,28.83
2019-02-18T17:10:47.092Z,24.37
2019-02-18T17:13:15.372Z,9.68
2019-02-18T17:15:44.436Z,17.58
2019-02-18T17:18:12.806Z,10.02
2019-02-18T17:20:41.220Z,15.55
2019-02-18T17:23:09.561Z,10.38
2019-02-18T17:25:37.851Z,13.27
2019-02-18T17:28:06.150Z,10.95
2019-02-18T17:30:34.483Z,12.10
2019-02-18T17:33:02.759Z,12.55
2019-02-18T17:35:31.147Z,13.55
2019-02-18T17:37:59.424Z,10.95
2019-02-18T17:40:27.836Z,13.55
2019-02-18T17:42:56.176Z,10.68
2019-02-18T17:45:24.463Z,11.85
2019-02-18T17:47:52.740Z,12.50
2019-02-18T17:50:21.140Z,13.50
2019-02-18T17:52:50.436Z,14.10
2019-02-18T17:55:18.726Z,14.68
2019-02-18T17:57:47.058Z,19.57
2019-02-18T18:00:27.552Z,13.30
2019-02-18T18:02:55.937Z,9.23
2019-02-18T18:05:24.215Z,10.73
2019-02-18T18:07:53.363Z,16.70
2019-02-18T18:10:21.738Z,9.25
2019-02-18T18:12:50.156Z,11.45
2019-02-18T18:15:18.597Z,9.45
2019-02-18T18:17:46.912Z,11.52
2019-02-18T18:20:15.981Z,12.80
2019-02-18T18:22:44.349Z,15.93
2019-02-18T18:25:12.678Z,11.48
2019-02-18T18:27:41.736Z,9.55
2019-02-18T18:30:10.028Z,14.57
2019-02-18T18:32:38.322Z,13.70
2019-02-18T18:35:08.080Z,15.03
2019-02-18T18:37:36.404Z,13.45
2019-02-18T18:40:06.271Z,14.60
2019-02-18T18:42:34.680Z,15.85
2019-02-18T18:45:03.026Z,13.75
2019-02-18T18:47:31.346Z,14.98
2019-02-18T18:50:00.437Z,17.12
2019-02-18T18:52:28.665Z,19.45
2019-02-18T18:54:56.941Z,19.42
2019-02-18T18:57:25.229Z,16.58
2019-02-18T18:59:53.601Z,18.58
2019-02-18T19:02:21.879Z,22.90
2019-02-18T19:04:50.251Z,27.75
2019-02-18T19:07:18.567Z,22.92
2019-02-18T19:09:48.487Z,24.77
2019-02-18T19:12:16.755Z,26.83
2019-02-18T19:14:45.880Z,26.48
2019-02-18T19:17:14.162Z,22.60
2019-02-18T19:19:42.467Z,20.90
2019-02-18T19:22:10.831Z,25.70
2019-02-18T19:24:39.148Z,26.20
2019-02-18T19:27:07.532Z,27.10
2019-02-18T19:29:36.586Z,20.42
2019-02-18T19:32:04.962Z,23.65
2019-02-18T19:34:33.340Z,27.23
2019-02-18T19:37:01.633Z,23.30
2019-02-18T19:39:30.004Z,19.90
2019-02-18T19:41:58.286Z,26.48
2019-02-18T19:44:26.669Z,17.15
2019-02-18T19:46:55.080Z,14.63
2019-02-18T19:49:24.215Z,19.33
2019-02-18T19:51:52.502Z,22.77
2019-02-18T19:54:20.779Z,20.42
2019-02-18T19:56:49.110Z,12.93
2019-02-18T19:59:18.135Z,15.32
2019-02-18T20:01:46.460Z,18.42
2019-02-18T20:04:15.538Z,16.33
2019-02-18T20:06:43.857Z,32.92
2019-02-18T20:09:12.181Z,42.35
2019-02-18T20:11:40.487Z,39.40
2019-02-18T20:14:09.640Z,23.50
2019-02-18T20:16:37.934Z,14.90
2019-02-18T20:19:06.212Z,9.70
2019-02-18T20:21:36.003Z,13.70
2019-02-18T20:24:04.294Z,20.12
2019-02-18T20:26:32.624Z,21.15
2019-02-18T20:29:00.921Z,18.27
2019-02-18T20:31:29.409Z,16.52
2019-02-18T20:33:57.690Z,17.48
2019-02-18T20:36:25.979Z,14.87
2019-02-18T20:38:55.920Z,14.10
2019-02-18T20:41:24.158Z,11.80
2019-02-18T20:43:52.418Z,11.87
2019-02-18T20:46:20.732Z,12.47
2019-02-18T20:48:48.999Z,17.57
2019-02-18T20:51:17.354Z,13.38
2019-02-18T20:53:45.645Z,12.97
2019-02-18T20:56:13.901Z,13.00
2019-02-18T20:58:42.227Z,14.43
2019-02-18T21:01:10.428Z,11.50
2019-02-18T21:03:38.710Z,14.48
2019-02-18T21:06:06.986Z,15.43
2019-02-18T21:08:35.271Z,12.60
2019-02-18T21:11:03.688Z,15.60
2019-02-18T21:13:31.973Z,11.50
2019-02-18T21:16:00.371Z,17.60
2019-02-18T21:18:29.391Z,10.57
2019-02-18T21:20:57.779Z,11.00
2019-02-18T21:23:26.031Z,13.10
2019-02-18T21:25:55.129Z,11.50
2019-02-18T21:28:23.464Z,10.55
2019-02-18T21:30:51.837Z,12.02
2019-02-18T21:33:20.216Z,15.63
2019-02-18T21:35:48.468Z,13.07
2019-02-18T21:38:16.729Z,10.18
2019-02-18T21:40:45.328Z,17.37
2019-02-18T21:43:13.649Z,17.20
2019-02-18T21:45:42.690Z,15.00
2019-02-18T21:48:11.071Z,14.00
2019-02-18T21:50:39.439Z,20.00
2019-02-18T21:53:07.819Z,18.20
2019-02-18T21:55:36.113Z,21.10
2019-02-18T21:58:04.471Z,16.98
2019-02-18T22:00:32.854Z,18.05
2019-02-18T22:03:01.219Z,26.00
2019-02-18T22:05:29.499Z,23.08
2019-02-18T22:07:57.770Z,19.13
2019-02-18T22:10:26.068Z,18.70
2019-02-18T22:12:54.434Z,17.87
2019-02-18T22:15:22.821Z,21.35
2019-02-18T22:17:51.136Z,19.40
2019-02-18T22:20:20.839Z,15.85
2019-02-18T22:22:48.555Z,18.17
2019-02-18T22:25:16.931Z,15.82
2019-02-18T22:27:45.306Z,16.10
2019-02-18T22:30:14.361Z,16.62
2019-02-18T22:32:42.680Z,20.15
2019-02-18T22:35:10.993Z,21.98
2019-02-18T22:37:40.077Z,16.70
2019-02-18T22:40:08.393Z,17.33
2019-02-18T22:42:36.818Z,16.62
2019-02-18T22:45:05.204Z,19.70
2019-02-18T22:47:33.563Z,16.65
2019-02-18T22:50:01.897Z,17.87
2019-02-18T22:52:30.940Z,14.00
2019-02-18T22:54:59.211Z,15.23
2019-02-18T22:57:27.472Z,17.83
2019-02-18T22:59:55.751Z,13.90
2019-02-18T23:02:24.046Z,17.15
2019-02-18T23:04:52.330Z,14.35
2019-02-18T23:07:20.623Z,15.88
2019-02-18T23:09:49.668Z,13.62
2019-02-18T23:12:18.097Z,13.50
2019-02-18T23:14:50.448Z,14.82
2019-02-18T23:17:15.454Z,13.52
2019-02-18T23:19:43.764Z,13.70
2019-02-18T23:22:12.054Z,12.93
2019-02-18T23:24:40.384Z,14.05
2019-02-18T23:27:08.663Z,14.55
2019-02-18T23:29:37.748Z,12.45
2019-02-18T23:32:06.064Z,12.73
2019-02-18T23:34:34.409Z,13.32
2019-02-18T23:37:02.747Z,12.55
2019-02-18T23:39:31.027Z,12.40
2019-02-18T23:41:59.395Z,12.63
2019-02-18T23:44:27.675Z,13.15
2019-02-18T23:46:55.988Z,13.80
2019-02-18T23:49:24.342Z,14.70
2019-02-18T23:51:52.727Z,14.50
2019-02-18T23:54:21.023Z,15.82
2019-02-18T23:56:50.229Z,14.23
2019-02-18T23:59:19.312Z,15.70
